createdAt,value
2022-07-28T00:00:09.471Z,15.16
2022-07-28T00:02:36.764Z,15.04
2022-07-28T00:05:04.888Z,15.17
2022-07-28T00:07:31.476Z,15.17
2022-07-28T00:10:00.615Z,15.10
2022-07-28T00:12:30.240Z,15.06
2022-07-28T00:15:00.100Z,15.00
2022-07-28T00:17:26.687Z,15.04
2022-07-28T00:19:53.294Z,14.92
2022-07-28T00:22:20.032Z,14.94
2022-07-28T00:24:46.581Z,14.89
2022-07-28T00:27:19.345Z,14.83
2022-07-28T00:29:50.567Z,14.79
2022-07-28T00:32:18.629Z,14.73
2022-07-28T00:34:47.631Z,14.64
2022-07-28T00:37:16.693Z,14.62
2022-07-28T00:39:43.944Z,14.66
2022-07-28T00:42:10.659Z,14.65
2022-07-28T00:44:39.146Z,14.63
2022-07-28T00:47:05.914Z,14.55
2022-07-28T00:49:32.654Z,14.36
2022-07-28T00:52:00.095Z,14.49
2022-07-28T00:54:26.769Z,14.43
2022-07-28T00:56:53.296Z,14.30
2022-07-28T00:59:19.883Z,14.33
2022-07-28T01:01:49.075Z,14.31
2022-07-28T01:04:16.704Z,13.63
2022-07-28T01:06:49.902Z,14.20
2022-07-28T01:09:20.086Z,14.21
2022-07-28T01:12:22.559Z,14.14
2022-07-28T01:14:56.558Z,14.10
2022-07-28T01:17:35.934Z,14.07
2022-07-28T01:20:34.134Z,13.99
2022-07-28T01:23:26.403Z,13.90
2022-07-28T01:26:14.860Z,13.95
2022-07-28T01:28:59.808Z,13.95
2022-07-28T01:31:29.423Z,13.91
2022-07-28T01:33:59.630Z,13.88
2022-07-28T01:36:36.861Z,13.87
2022-07-28T01:39:03.728Z,13.80
2022-07-28T01:41:36.493Z,13.78
2022-07-28T01:44:08.530Z,13.81
2022-07-28T01:46:39.929Z,13.81
2022-07-28T01:49:08.135Z,13.80
2022-07-28T01:51:36.731Z,13.79
2022-07-28T01:54:06.918Z,13.79
2022-07-28T01:56:34.656Z,13.37
2022-07-28T01:59:05.828Z,13.75
2022-07-28T02:01:38.822Z,13.76
2022-07-28T02:04:08.323Z,13.79
2022-07-28T02:06:35.716Z,13.79
2022-07-28T02:09:08.074Z,13.80
2022-07-28T02:11:40.996Z,13.78
2022-07-28T02:14:19.203Z,13.77
2022-07-28T02:16:48.814Z,13.72
2022-07-28T02:19:19.812Z,13.77
2022-07-28T02:21:48.720Z,13.75
2022-07-28T02:24:19.076Z,13.74
2022-07-28T02:27:01.778Z,13.73
2022-07-28T02:29:52.177Z,13.68
2022-07-28T02:32:29.414Z,13.69
2022-07-28T02:35:03.296Z,13.67
2022-07-28T02:37:38.301Z,13.62
2022-07-28T02:40:07.756Z,13.71
2022-07-28T02:42:36.831Z,13.72
2022-07-28T02:45:06.879Z,13.73
2022-07-28T02:47:46.350Z,13.71
2022-07-28T02:50:20.404Z,13.67
2022-07-28T02:52:48.035Z,13.62
2022-07-28T02:55:19.188Z,13.56
2022-07-28T02:57:46.661Z,13.55
2022-07-28T03:00:14.475Z,13.56
2022-07-28T03:02:42.038Z,13.50
2022-07-28T03:05:11.911Z,13.55
2022-07-28T03:07:46.462Z,13.51
2022-07-28T03:10:32.813Z,13.48
2022-07-28T03:13:03.237Z,13.45
2022-07-28T03:15:32.349Z,13.44
2022-07-28T03:18:00.742Z,13.41
2022-07-28T03:20:27.856Z,13.39
2022-07-28T03:22:55.322Z,13.35
2022-07-28T03:25:32.617Z,13.36
2022-07-28T03:28:04.808Z,13.33
2022-07-28T03:30:42.872Z,13.37
2022-07-28T03:33:12.419Z,13.30
2022-07-28T03:35:48.802Z,13.37
2022-07-28T03:38:22.742Z,13.27
2022-07-28T03:40:50.486Z,13.30
2022-07-28T03:43:19.558Z,13.26
2022-07-28T03:45:47.820Z,13.28
2022-07-28T03:48:17.368Z,13.25
2022-07-28T03:50:46.285Z,13.23
2022-07-28T03:53:30.900Z,13.20
2022-07-28T03:56:00.083Z,13.16
2022-07-28T03:58:28.919Z,13.02
2022-07-28T04:00:56.914Z,13.13
2022-07-28T04:03:42.821Z,13.12
2022-07-28T04:06:12.571Z,13.10
2022-07-28T04:08:39.174Z,13.11
2022-07-28T04:11:08.123Z,13.10
2022-07-28T04:13:37.280Z,13.11
2022-07-28T04:16:07.563Z,13.11
2022-07-28T04:18:37.540Z,13.07
2022-07-28T04:21:08.281Z,13.15
2022-07-28T04:23:34.903Z,13.15
2022-07-28T04:26:06.197Z,13.10
2022-07-28T04:28:32.821Z,13.21
2022-07-28T04:31:04.054Z,13.25
2022-07-28T04:33:33.297Z,13.29
2022-07-28T04:36:01.702Z,13.38
2022-07-28T04:38:29.119Z,13.21
2022-07-28T04:40:57.596Z,13.49
2022-07-28T04:43:24.211Z,13.51
2022-07-28T04:45:54.589Z,13.56
2022-07-28T04:48:22.870Z,13.66
2022-07-28T04:50:51.210Z,13.71
2022-07-28T04:53:18.656Z,13.80
2022-07-28T04:55:45.469Z,13.86
2022-07-28T04:58:18.354Z,13.88
2022-07-28T05:00:49.556Z,13.95
2022-07-28T05:03:16.773Z,14.39
2022-07-28T05:05:43.483Z,15.76
2022-07-28T05:08:26.364Z,16.53
2022-07-28T05:10:54.589Z,17.10
2022-07-28T05:13:21.194Z,17.28
2022-07-28T05:15:51.160Z,17.31
2022-07-28T05:18:19.579Z,18.11
2022-07-28T05:20:46.093Z,19.12
2022-07-28T05:23:12.829Z,20.03
2022-07-28T05:25:39.499Z,20.97
2022-07-28T05:28:08.455Z,21.59
2022-07-28T05:30:38.301Z,21.86
2022-07-28T05:33:08.121Z,21.32
2022-07-28T05:35:34.761Z,21.09
2022-07-28T05:38:01.323Z,21.76
2022-07-28T05:40:28.163Z,22.67
2022-07-28T05:42:54.685Z,23.73
2022-07-28T05:45:21.281Z,23.59
2022-07-28T05:47:49.651Z,23.64
2022-07-28T05:50:20.907Z,23.25
2022-07-28T05:52:48.398Z,23.13
2022-07-28T05:55:15.573Z,22.79
2022-07-28T05:57:42.520Z,22.94
2022-07-28T06:00:13.097Z,23.35
2022-07-28T06:02:45.745Z,24.07
2022-07-28T06:05:13.355Z,24.70
2022-07-28T06:07:43.339Z,25.72
2022-07-28T06:10:18.972Z,26.56
2022-07-28T06:12:48.414Z,26.63
2022-07-28T06:15:17.816Z,27.02
2022-07-28T06:17:44.634Z,27.99
2022-07-28T06:20:12.546Z,27.69
2022-07-28T06:22:44.086Z,27.03
2022-07-28T06:25:17.954Z,25.80
2022-07-28T06:27:49.335Z,25.70
2022-07-28T06:30:21.817Z,25.38
2022-07-28T06:32:48.650Z,24.36
2022-07-28T06:35:16.826Z,22.81
2022-07-28T06:37:47.004Z,21.60
2022-07-28T06:40:14.964Z,20.84
2022-07-28T06:42:44.477Z,20.31
2022-07-28T06:45:19.815Z,20.26
2022-07-28T06:47:51.105Z,20.21
2022-07-28T06:50:25.688Z,20.26
2022-07-28T06:52:59.111Z,20.28
2022-07-28T06:55:34.791Z,20.60
2022-07-28T06:58:04.209Z,20.08
2022-07-28T07:00:31.158Z,21.86
2022-07-28T07:02:57.898Z,23.99
2022-07-28T07:05:25.959Z,25.20
2022-07-28T07:07:52.501Z,24.58
2022-07-28T07:10:19.098Z,24.70
2022-07-28T07:12:45.880Z,24.26
2022-07-28T07:15:12.706Z,25.33
2022-07-28T07:17:39.510Z,24.79
2022-07-28T07:20:07.126Z,24.89
2022-07-28T07:22:33.912Z,24.33
2022-07-28T07:25:18.944Z,23.09
2022-07-28T07:27:48.240Z,22.63
2022-07-28T07:30:16.007Z,22.07
2022-07-28T07:32:45.146Z,22.28
2022-07-28T07:35:12.472Z,22.87
2022-07-28T07:37:39.488Z,24.04
2022-07-28T07:40:10.351Z,25.54
2022-07-28T07:42:39.569Z,25.73
2022-07-28T07:45:08.877Z,26.31
2022-07-28T07:47:35.811Z,26.60
2022-07-28T07:50:04.435Z,26.94
2022-07-28T07:52:31.302Z,28.01
2022-07-28T07:54:57.923Z,27.95
2022-07-28T07:57:24.597Z,28.45
2022-07-28T07:59:51.178Z,27.83
2022-07-28T08:02:17.760Z,25.32
2022-07-28T08:04:44.434Z,24.38
2022-07-28T08:07:11.318Z,26.10
2022-07-28T08:09:38.668Z,26.11
2022-07-28T08:12:05.680Z,26.05
2022-07-28T08:14:32.321Z,26.86
2022-07-28T08:17:01.227Z,27.50
2022-07-28T08:19:27.812Z,27.35
2022-07-28T08:21:55.615Z,27.10
2022-07-28T08:24:33.252Z,28.29
2022-07-28T08:27:03.385Z,28.50
2022-07-28T08:29:30.767Z,28.32
2022-07-28T08:31:57.727Z,28.60
2022-07-28T08:34:31.259Z,28.16
2022-07-28T08:37:06.146Z,27.89
2022-07-28T08:39:34.267Z,27.73
2022-07-28T08:42:12.146Z,27.95
2022-07-28T08:44:54.853Z,27.66
2022-07-28T08:47:22.327Z,26.88
2022-07-28T08:49:51.819Z,26.85
2022-07-28T08:52:22.051Z,27.22
2022-07-28T08:54:50.479Z,28.03
2022-07-28T08:57:22.541Z,27.99
2022-07-28T08:59:50.001Z,28.00
2022-07-28T09:02:17.214Z,28.63
2022-07-28T09:04:46.257Z,28.36
2022-07-28T09:07:13.180Z,28.63
2022-07-28T09:09:42.321Z,28.35
2022-07-28T09:12:09.363Z,28.41
2022-07-28T09:14:36.114Z,28.07
2022-07-28T09:17:05.420Z,27.94
2022-07-28T09:19:34.502Z,28.17
2022-07-28T09:22:03.455Z,28.38
2022-07-28T09:24:48.437Z,27.76
2022-07-28T09:27:15.612Z,27.18
2022-07-28T09:29:49.260Z,26.97
2022-07-28T09:32:19.111Z,26.52
2022-07-28T09:34:47.897Z,26.60
2022-07-28T09:37:23.340Z,26.52
2022-07-28T09:40:03.819Z,25.76
2022-07-28T09:42:46.365Z,25.58
2022-07-28T09:45:22.924Z,25.62
2022-07-28T09:48:07.794Z,25.66
2022-07-28T09:50:34.574Z,25.55
2022-07-28T09:53:20.431Z,25.48
2022-07-28T09:56:15.362Z,25.40
2022-07-28T09:58:52.294Z,25.53
2022-07-28T10:01:24.387Z,25.23
2022-07-28T10:03:53.762Z,24.82
2022-07-28T10:06:31.745Z,24.49
2022-07-28T10:09:02.758Z,24.51
2022-07-28T10:11:31.093Z,24.25
2022-07-28T10:14:03.296Z,24.19
2022-07-28T10:16:34.514Z,24.46
2022-07-28T10:19:04.164Z,24.51
2022-07-28T10:21:46.388Z,24.66
2022-07-28T10:24:22.323Z,24.56
2022-07-28T10:26:50.794Z,24.43
2022-07-28T10:29:21.212Z,24.46
2022-07-28T10:31:54.868Z,24.61
2022-07-28T10:34:28.021Z,24.63
2022-07-28T10:36:56.170Z,24.55
2022-07-28T10:39:28.471Z,24.58
2022-07-28T10:41:56.577Z,24.53
2022-07-28T10:44:26.191Z,24.28
2022-07-28T10:46:53.804Z,24.25
2022-07-28T10:49:27.616Z,24.14
2022-07-28T10:52:06.474Z,24.06
2022-07-28T10:55:05.127Z,24.12
2022-07-28T10:57:32.566Z,24.30
2022-07-28T11:00:12.229Z,24.35
2022-07-28T11:02:55.412Z,24.42
2022-07-28T11:05:40.927Z,24.33
2022-07-28T11:08:16.961Z,24.32
2022-07-28T11:10:46.204Z,24.51
2022-07-28T11:13:41.299Z,24.27
2022-07-28T11:16:13.919Z,24.23
2022-07-28T11:19:08.098Z,24.26
2022-07-28T11:22:22.388Z,23.94
2022-07-28T11:24:58.547Z,24.05
2022-07-28T11:27:45.423Z,24.09
2022-07-28T11:30:19.323Z,24.13
2022-07-28T11:32:53.516Z,24.31
2022-07-28T11:35:21.104Z,24.49
2022-07-28T11:38:03.101Z,24.36
2022-07-28T11:40:44.960Z,24.39
2022-07-28T11:43:36.629Z,24.34
2022-07-28T11:46:07.603Z,24.32
2022-07-28T11:48:41.809Z,24.20
2022-07-28T11:51:09.466Z,24.19
2022-07-28T11:53:54.161Z,24.31
2022-07-28T11:56:26.342Z,24.34
2022-07-28T11:59:06.590Z,24.24
2022-07-28T12:01:38.599Z,24.71
2022-07-28T12:04:12.193Z,24.68
2022-07-28T12:06:42.626Z,24.71
2022-07-28T12:09:11.254Z,24.95
2022-07-28T12:11:42.920Z,25.31
2022-07-28T12:14:14.879Z,25.15
2022-07-28T12:16:47.036Z,25.52
2022-07-28T12:19:18.511Z,25.24
2022-07-28T12:21:53.203Z,25.03
2022-07-28T12:24:44.523Z,24.80
2022-07-28T12:27:14.929Z,24.98
2022-07-28T12:29:42.249Z,25.18
2022-07-28T12:32:14.269Z,25.05
2022-07-28T12:34:45.417Z,24.86
2022-07-28T12:37:13.958Z,24.55
2022-07-28T12:39:44.276Z,24.55
2022-07-28T12:42:13.042Z,24.54
2022-07-28T12:44:45.046Z,24.43
2022-07-28T12:47:18.118Z,24.48
2022-07-28T12:49:56.326Z,24.65
2022-07-28T12:52:25.199Z,24.60
2022-07-28T12:54:55.001Z,24.54
2022-07-28T12:57:51.558Z,24.48
2022-07-28T13:00:24.623Z,24.44
2022-07-28T13:02:55.315Z,24.46
2022-07-28T13:05:33.460Z,24.50
2022-07-28T13:08:06.110Z,24.61
2022-07-28T13:10:46.165Z,24.89
2022-07-28T13:13:12.859Z,25.02
2022-07-28T13:15:39.612Z,24.90
2022-07-28T13:18:06.143Z,25.13
2022-07-28T13:20:47.871Z,25.44
2022-07-28T13:23:16.739Z,25.69
2022-07-28T13:25:43.431Z,25.93
2022-07-28T13:28:23.877Z,25.90
2022-07-28T13:30:50.571Z,25.69
2022-07-28T13:33:17.502Z,25.49
2022-07-28T13:35:44.542Z,25.78
2022-07-28T13:38:13.873Z,25.65
2022-07-28T13:40:40.594Z,25.60
2022-07-28T13:43:11.846Z,25.68
2022-07-28T13:45:39.436Z,25.78
2022-07-28T13:48:10.058Z,25.99
2022-07-28T13:50:37.287Z,25.97
2022-07-28T13:53:06.462Z,26.05
2022-07-28T13:55:36.743Z,26.25
2022-07-28T13:58:08.441Z,26.19
2022-07-28T14:00:35.603Z,26.16
2022-07-28T14:03:03.181Z,26.13
2022-07-28T14:05:37.368Z,25.96
2022-07-28T14:08:05.434Z,25.83
2022-07-28T14:10:32.454Z,25.83
2022-07-28T14:13:01.753Z,25.70
2022-07-28T14:15:28.342Z,25.71
2022-07-28T14:17:54.923Z,25.79
2022-07-28T14:20:21.594Z,25.97
2022-07-28T14:22:50.483Z,26.14
2022-07-28T14:25:20.547Z,26.13
2022-07-28T14:27:48.464Z,26.18
2022-07-28T14:30:15.035Z,26.25
2022-07-28T14:32:41.600Z,26.22
2022-07-28T14:35:08.491Z,26.19
2022-07-28T14:37:47.434Z,26.11
2022-07-28T14:40:21.937Z,25.79
2022-07-28T14:42:48.530Z,25.73
2022-07-28T14:45:17.741Z,25.54
2022-07-28T14:47:46.823Z,25.35
2022-07-28T14:50:13.888Z,25.52
2022-07-28T14:52:41.070Z,25.42
2022-07-28T14:55:14.119Z,25.37
2022-07-28T14:57:50.215Z,25.29
2022-07-28T15:00:25.225Z,25.32
2022-07-28T15:02:53.142Z,25.30
2022-07-28T15:05:23.449Z,25.56
2022-07-28T15:07:52.262Z,25.56
2022-07-28T15:10:20.069Z,25.72
2022-07-28T15:12:46.929Z,25.74
2022-07-28T15:15:16.181Z,25.81
2022-07-28T15:17:45.425Z,25.84
2022-07-28T15:20:12.247Z,25.84
2022-07-28T15:22:38.891Z,25.92
2022-07-28T15:25:05.981Z,25.81
2022-07-28T15:27:33.821Z,25.81
2022-07-28T15:30:03.067Z,25.79
2022-07-28T15:32:31.698Z,25.71
2022-07-28T15:34:58.409Z,25.61
2022-07-28T15:37:25.006Z,25.77
2022-07-28T15:39:54.122Z,25.65
2022-07-28T15:42:21.096Z,25.50
2022-07-28T15:44:47.647Z,25.46
2022-07-28T15:47:14.153Z,25.53
2022-07-28T15:49:41.663Z,25.50
2022-07-28T15:52:08.294Z,25.47
2022-07-28T15:54:35.127Z,25.51
2022-07-28T15:57:01.932Z,25.54
2022-07-28T15:59:49.590Z,25.49
2022-07-28T16:02:17.445Z,25.45
2022-07-28T16:04:51.094Z,25.50
2022-07-28T16:07:23.932Z,25.42
2022-07-28T16:09:52.250Z,25.31
2022-07-28T16:12:19.005Z,25.36
2022-07-28T16:14:45.607Z,25.27
2022-07-28T16:17:12.832Z,25.22
2022-07-28T16:19:48.922Z,25.29
2022-07-28T16:22:17.912Z,25.27
2022-07-28T16:24:44.692Z,25.32
2022-07-28T16:27:11.395Z,25.36
2022-07-28T16:29:38.335Z,25.44
2022-07-28T16:32:07.639Z,25.46
2022-07-28T16:34:36.455Z,25.47
2022-07-28T16:37:07.671Z,25.45
2022-07-28T16:39:34.794Z,25.44
2022-07-28T16:42:02.714Z,25.44
2022-07-28T16:44:31.809Z,25.40
2022-07-28T16:47:03.356Z,25.32
2022-07-28T16:49:30.200Z,25.32
2022-07-28T16:51:57.554Z,25.37
2022-07-28T16:54:24.528Z,25.37
2022-07-28T16:56:52.177Z,25.38
2022-07-28T16:59:18.797Z,25.42
2022-07-28T17:01:46.655Z,25.41
2022-07-28T17:04:17.088Z,25.42
2022-07-28T17:06:44.394Z,25.36
2022-07-28T17:09:13.591Z,25.30
2022-07-28T17:11:42.119Z,25.15
2022-07-28T17:14:10.350Z,25.07
2022-07-28T17:16:37.577Z,24.96
2022-07-28T17:19:05.019Z,24.81
2022-07-28T17:21:35.903Z,24.87
2022-07-28T17:24:02.768Z,24.84
2022-07-28T17:27:32.339Z,24.85
2022-07-28T17:29:18.856Z,24.82
2022-07-28T17:31:46.111Z,24.80
2022-07-28T17:34:13.087Z,24.79
2022-07-28T17:36:42.017Z,24.73
2022-07-28T17:39:11.912Z,24.72
2022-07-28T17:41:39.027Z,24.58
2022-07-28T17:44:11.454Z,24.52
2022-07-28T17:46:38.538Z,24.50
2022-07-28T17:49:05.841Z,24.48
2022-07-28T17:51:32.584Z,24.35
2022-07-28T17:53:59.352Z,24.26
2022-07-28T17:56:31.301Z,24.17
2022-07-28T17:58:58.612Z,24.17
2022-07-28T18:01:27.031Z,24.15
2022-07-28T18:03:56.817Z,24.11
2022-07-28T18:06:34.329Z,24.06
2022-07-28T18:09:12.077Z,24.25
2022-07-28T18:11:57.905Z,24.07
2022-07-28T18:14:30.237Z,24.03
2022-07-28T18:16:58.372Z,23.97
2022-07-28T18:19:26.504Z,23.91
2022-07-28T18:21:55.706Z,23.81
2022-07-28T18:24:24.760Z,23.73
2022-07-28T18:26:51.955Z,23.71
2022-07-28T18:29:21.989Z,23.62
2022-07-28T18:31:50.565Z,23.57
2022-07-28T18:34:24.686Z,23.49
2022-07-28T18:36:52.154Z,23.65
2022-07-28T18:39:21.237Z,23.56
2022-07-28T18:41:48.149Z,23.41
2022-07-28T18:44:18.559Z,23.27
2022-07-28T18:46:45.731Z,23.25
2022-07-28T18:49:12.636Z,23.18
2022-07-28T18:51:45.392Z,23.08
2022-07-28T18:54:18.960Z,22.99
2022-07-28T18:56:46.941Z,22.81
2022-07-28T18:59:14.032Z,22.72
2022-07-28T19:01:42.945Z,22.66
2022-07-28T19:04:09.694Z,22.41
2022-07-28T19:06:36.888Z,22.55
2022-07-28T19:09:04.162Z,22.51
2022-07-28T19:11:32.233Z,22.46
2022-07-28T19:14:01.674Z,22.39
2022-07-28T19:16:28.532Z,22.33
2022-07-28T19:18:55.343Z,22.19
2022-07-28T19:21:21.895Z,22.19
2022-07-28T19:23:49.094Z,22.15
2022-07-28T19:26:15.719Z,22.15
2022-07-28T19:28:43.313Z,22.01
2022-07-28T19:31:10.821Z,21.95
2022-07-28T19:33:43.667Z,21.88
2022-07-28T19:36:11.029Z,21.84
2022-07-28T19:38:37.672Z,21.82
2022-07-28T19:41:04.319Z,21.80
2022-07-28T19:43:31.302Z,21.76
2022-07-28T19:46:00.121Z,21.72
2022-07-28T19:48:27.168Z,21.65
2022-07-28T19:50:56.780Z,21.58
2022-07-28T19:53:31.892Z,21.53
2022-07-28T19:56:03.290Z,21.46
2022-07-28T19:58:33.920Z,21.41
2022-07-28T20:01:00.974Z,21.33
2022-07-28T20:04:01.979Z,21.24
2022-07-28T20:06:16.916Z,21.14
2022-07-28T20:08:51.918Z,21.12
2022-07-28T20:11:18.557Z,21.05
2022-07-28T20:13:45.318Z,20.89
2022-07-28T20:16:14.457Z,20.92
2022-07-28T20:18:43.976Z,20.86
2022-07-28T20:21:10.545Z,20.80
2022-07-28T20:23:38.702Z,20.74
2022-07-28T20:26:07.722Z,20.68
2022-07-28T20:28:34.268Z,20.59
2022-07-28T20:31:01.000Z,20.53
2022-07-28T20:33:27.677Z,20.51
2022-07-28T20:35:54.614Z,20.48
2022-07-28T20:38:23.880Z,20.41
2022-07-28T20:40:51.412Z,20.42
2022-07-28T20:43:17.996Z,20.40
2022-07-28T20:45:49.901Z,20.33
2022-07-28T20:48:16.554Z,20.35
2022-07-28T20:50:43.135Z,20.30
2022-07-28T20:53:10.583Z,20.24
2022-07-28T20:55:37.324Z,20.23
2022-07-28T20:58:05.919Z,20.18
2022-07-28T21:00:32.712Z,20.11
2022-07-28T21:03:01.732Z,20.07
2022-07-28T21:05:35.463Z,19.99
2022-07-28T21:08:06.529Z,19.94
2022-07-28T21:10:36.237Z,19.95
2022-07-28T21:13:02.833Z,19.93
2022-07-28T21:15:29.480Z,19.91
2022-07-28T21:17:59.030Z,19.83
2022-07-28T21:20:26.157Z,19.81
2022-07-28T21:22:53.132Z,19.78
2022-07-28T21:25:22.858Z,19.75
2022-07-28T21:28:10.422Z,19.56
2022-07-28T21:30:37.095Z,19.58
2022-07-28T21:33:05.985Z,19.52
2022-07-28T21:35:33.012Z,19.51
2022-07-28T21:37:59.597Z,19.43
2022-07-28T21:40:26.178Z,19.37
2022-07-28T21:42:57.360Z,19.31
2022-07-28T21:45:23.966Z,19.26
2022-07-28T21:47:50.591Z,19.05
2022-07-28T21:50:17.289Z,19.25
2022-07-28T21:52:43.817Z,19.17
2022-07-28T21:55:10.442Z,19.21
2022-07-28T21:57:37.007Z,19.21
2022-07-28T22:00:07.943Z,19.20
2022-07-28T22:02:34.632Z,19.21
2022-07-28T22:05:01.304Z,19.16
2022-07-28T22:07:28.258Z,19.17
2022-07-28T22:09:57.141Z,19.09
2022-07-28T22:12:23.984Z,19.11
2022-07-28T22:14:52.858Z,19.07
2022-07-28T22:17:19.398Z,19.00
2022-07-28T22:19:45.997Z,18.96
2022-07-28T22:22:12.617Z,18.91
2022-07-28T22:24:39.203Z,18.82
2022-07-28T22:27:05.846Z,18.84
2022-07-28T22:29:32.397Z,18.80
2022-07-28T22:31:59.504Z,18.77
2022-07-28T22:34:26.551Z,18.75
2022-07-28T22:36:57.934Z,18.73
2022-07-28T22:39:24.570Z,18.69
2022-07-28T22:41:53.495Z,18.71
2022-07-28T22:44:20.162Z,18.69
2022-07-28T22:46:47.195Z,18.67
2022-07-28T22:49:13.920Z,18.63
2022-07-28T22:51:40.732Z,18.60
2022-07-28T22:54:14.723Z,18.55
2022-07-28T22:59:25.925Z,18.49
2022-07-28T23:01:55.485Z,18.50
2022-07-28T23:04:23.103Z,18.51
2022-07-28T23:06:51.092Z,18.50
2022-07-28T23:09:17.651Z,18.48
2022-07-28T23:11:55.442Z,18.41
2022-07-28T23:14:25.060Z,18.38
2022-07-28T23:16:51.683Z,18.39
2022-07-28T23:19:18.305Z,18.39
2022-07-28T23:21:47.400Z,18.32
2022-07-28T23:24:14.266Z,18.36
2022-07-28T23:26:41.204Z,18.16
2022-07-28T23:29:08.098Z,18.35
2022-07-28T23:31:35.195Z,18.31
2022-07-28T23:34:01.954Z,18.30
2022-07-28T23:36:31.011Z,18.25
2022-07-28T23:38:59.189Z,18.24
2022-07-28T23:41:27.023Z,18.22
2022-07-28T23:43:53.821Z,18.17
2022-07-28T23:46:20.857Z,18.20
2022-07-28T23:48:47.812Z,18.03
2022-07-28T23:51:16.816Z,18.18
2022-07-28T23:53:45.941Z,18.17
2022-07-28T23:56:15.945Z,18.09
2022-07-28T23:58:42.658Z,18.12
